Time;durP1;ratioP1;P1;durP2;ratioP2;P2;SDS_P1;SDS_P2;PMS_P1;PMS_P2;Temp;Humidity;BMP_temperature;BMP_pressure;BME280_temperature;BME280_humidity;BME280_pressure;Samples;Min_cycle;Max_cycle;Signal;HPM_P1;HPM_P2
2022/05/27 00:01:51;;;;;;;2.67;1.13;;;14.10;99.90;;;;;;5072291;28;20032;-73
2022/05/27 00:04:17;;;;;;;6.35;1.30;;;14.40;99.90;;;;;;5055469;28;20097;-73
2022/05/27 00:06:43;;;;;;;2.90;0.98;;;14.10;99.90;;;;;;5055638;28;20090;-73
2022/05/27 00:09:09;;;;;;;2.15;0.95;;;14.10;99.90;;;;;;5055392;28;20040;-73
2022/05/27 00:11:35;;;;;;;1.88;1.00;;;14.30;99.90;;;;;;5072219;28;20135;-73
2022/05/27 00:14:01;;;;;;;4.20;0.88;;;14.10;99.90;;;;;;5071912;28;20142;-73
2022/05/27 00:16:28;;;;;;;2.28;1.17;;;14.00;99.90;;;;;;5055375;28;20178;-73
2022/05/27 00:18:55;;;;;;;2.92;1.33;;;13.90;99.90;;;;;;5071656;28;20064;-73
2022/05/27 00:21:21;;;;;;;3.53;1.17;;;13.90;99.90;;;;;;5071831;28;20118;-73
2022/05/27 00:23:47;;;;;;;2.33;1.08;;;13.90;99.90;;;;;;5071977;28;20059;-73
2022/05/27 00:26:13;;;;;;;2.22;1.27;;;14.30;99.90;;;;;;5073770;28;20087;-73
2022/05/27 00:28:39;;;;;;;2.83;1.15;;;14.20;99.90;;;;;;5058359;28;20489;-73
2022/05/27 00:31:05;;;;;;;2.03;0.88;;;13.80;99.90;;;;;;5058423;28;20043;-73
2022/05/27 00:33:34;;;;;;;4.85;1.23;;;14.10;99.90;;;;;;5075277;28;20510;-73
2022/05/27 00:36:00;;;;;;;9.73;1.23;;;13.90;99.90;;;;;;5042498;28;20050;-73
2022/05/27 00:38:26;;;;;;;3.47;1.40;;;13.90;99.90;;;;;;5074782;28;20039;-73
2022/05/27 00:40:52;;;;;;;2.85;1.30;;;13.90;99.90;;;;;;5058228;28;20124;-73
2022/05/27 00:43:19;;;;;;;1.77;0.77;;;13.80;99.90;;;;;;5040742;28;20040;-73
2022/05/27 00:45:59;;;;;;;3.40;0.90;;;13.70;99.90;;;;;;5058223;28;20078;-73
2022/05/27 00:48:26;;;;;;;3.30;1.30;;;13.70;99.90;;;;;;5058145;28;20036;-73
2022/05/27 00:50:53;;;;;;;0.88;0.88;;;13.80;99.90;;;;;;5074882;28;20036;-73
2022/05/27 00:53:43;;;;;;;4.35;1.50;;;13.80;99.90;;;;;;5074818;28;20086;-73
2022/05/27 00:56:13;;;;;;;2.50;1.30;;;13.70;99.90;;;;;;5058302;28;20547;-73
2022/05/27 00:58:46;;;;;;;3.88;1.25;;;13.70;99.90;;;;;;5074707;28;20048;-73
2022/05/27 01:01:13;;;;;;;1.88;1.20;;;14.00;99.90;;;;;;5074706;28;20040;-73
2022/05/27 01:03:40;;;;;;;5.75;1.10;;;13.70;99.90;;;;;;5074741;28;20127;-73
2022/05/27 01:06:06;;;;;;;2.72;1.40;;;13.70;99.90;;;;;;5075234;28;20376;-73
2022/05/27 01:08:32;;;;;;;1.30;0.85;;;13.50;99.90;;;;;;5074623;28;20047;-73
2022/05/27 01:11:24;;;;;;;2.67;1.45;;;13.60;99.90;;;;;;5041784;28;20067;-73
2022/05/27 01:14:08;;;;;;;1.83;1.30;;;13.50;99.90;;;;;;5074878;28;20471;-73
2022/05/27 01:17:05;;;;;;;3.08;1.15;;;13.60;99.90;;;;;;5074565;28;20040;-73
2022/05/27 01:22:55;;;;;;;1.73;0.93;;;13.50;99.90;;;;;;5074449;28;20106;-73
2022/05/27 01:25:37;;;;;;;17.33;1.38;;;13.60;99.90;;;;;;5058076;28;20040;-73
2022/05/27 01:28:28;;;;;;;2.38;1.42;;;13.40;99.90;;;;;;5074461;28;20056;-73
2022/05/27 01:31:03;;;;;;;4.88;1.33;;;13.40;99.90;;;;;;5057815;28;20123;-73
2022/05/27 01:33:42;;;;;;;4.70;1.02;;;13.50;99.90;;;;;;5074455;28;20127;-73
2022/05/27 01:36:42;;;;;;;1.73;1.15;;;13.20;99.90;;;;;;5057907;28;20483;-73
2022/05/27 01:39:21;;;;;;;2.53;1.08;;;13.40;99.90;;;;;;5074487;28;20572;-73
2022/05/27 01:42:15;;;;;;;1.92;1.15;;;13.40;99.90;;;;;;5074298;28;20123;-73
2022/05/27 01:44:47;;;;;;;4.13;1.20;;;13.30;99.90;;;;;;5074598;28;20051;-73
2022/05/27 01:47:21;;;;;;;1.73;1.10;;;13.20;99.90;;;;;;5074355;28;20075;-73
2022/05/27 01:50:03;;;;;;;4.38;1.38;;;13.30;99.90;;;;;;5074557;28;20044;-73
2022/05/27 01:52:37;;;;;;;4.85;0.93;;;13.30;99.90;;;;;;5074109;28;20036;-73
2022/05/27 01:55:32;;;;;;;3.75;1.02;;;13.10;99.90;;;;;;5060463;28;20036;-73
2022/05/27 01:58:19;;;;;;;1.08;0.90;;;13.20;99.90;;;;;;5075653;28;20066;-73
2022/05/27 02:00:48;;;;;;;2.47;1.08;;;13.20;99.90;;;;;;5061140;28;20052;-73
2022/05/27 02:03:21;;;;;;;4.18;1.23;;;13.20;99.90;;;;;;5061096;28;20051;-73
2022/05/27 02:05:59;;;;;;;2.47;0.90;;;13.40;99.90;;;;;;5077701;28;20097;-73
2022/05/27 02:08:33;;;;;;;3.20;1.08;;;12.90;99.90;;;;;;5077623;28;20047;-73
2022/05/27 02:11:04;;;;;;;5.00;1.55;;;13.20;99.90;;;;;;5077599;28;20048;-73
2022/05/27 02:13:54;;;;;;;3.28;1.30;;;13.10;99.90;;;;;;5060896;28;20044;-73
2022/05/27 02:16:38;;;;;;;2.55;1.00;;;13.00;99.90;;;;;;5060791;28;20051;-73
2022/05/27 02:19:11;;;;;;;1.48;1.02;;;13.00;99.90;;;;;;5077384;28;20150;-73
2022/05/27 02:21:46;;;;;;;2.95;0.90;;;12.90;99.90;;;;;;5077623;28;20502;-73
2022/05/27 02:24:36;;;;;;;3.85;1.17;;;12.90;99.90;;;;;;5077392;28;20032;-73
2022/05/27 02:27:14;;;;;;;1.58;0.88;;;12.80;99.90;;;;;;5077298;28;20060;-73
2022/05/27 02:29:44;;;;;;;2.15;1.00;;;12.90;99.90;;;;;;5060755;28;20510;-73
2022/05/27 02:32:16;;;;;;;6.53;1.55;;;12.80;99.90;;;;;;5077569;28;20043;-73
2022/05/27 02:35:08;;;;;;;6.65;1.05;;;12.70;99.90;;;;;;5077166;28;20047;-73
2022/05/27 02:37:55;;;;;;;1.88;0.82;;;12.60;99.90;;;;;;5060391;28;20048;-73
2022/05/27 02:40:44;;;;;;;4.28;1.08;;;12.70;99.90;;;;;;5076896;28;20040;-73
2022/05/27 02:43:20;;;;;;;3.10;1.02;;;12.50;99.90;;;;;;5060475;28;20392;-73
2022/05/27 02:45:52;;;;;;;2.25;1.17;;;12.60;99.90;;;;;;5060211;28;20123;-73
2022/05/27 02:48:42;;;;;;;1.58;1.00;;;12.80;99.90;;;;;;5060521;28;20036;-73
2022/05/27 02:51:21;;;;;;;2.03;1.15;;;12.30;99.90;;;;;;5076806;28;20051;-73
2022/05/27 02:54:29;;;;;;;6.63;1.20;;;12.50;99.90;;;;;;5076783;28;20074;-72
2022/05/27 02:57:07;;;;;;;2.53;0.75;;;12.40;99.90;;;;;;5076775;28;20042;-73
2022/05/27 02:59:35;;;;;;;5.63;1.15;;;12.30;99.90;;;;;;5060092;28;20051;-73
2022/05/27 03:02:07;;;;;;;5.25;0.90;;;12.60;99.90;;;;;;5060139;28;20551;-73
2022/05/27 03:04:33;;;;;;;3.15;1.48;;;12.30;99.90;;;;;;5076567;28;20040;-73
2022/05/27 03:07:24;;;;;;;2.03;0.93;;;12.20;99.90;;;;;;5076074;28;20372;-72
2022/05/27 03:09:54;;;;;;;2.08;1.00;;;12.20;99.90;;;;;;5059785;28;20040;-73
2022/05/27 03:12:38;;;;;;;2.08;0.68;;;12.20;99.90;;;;;;5076466;28;20081;-73
2022/05/27 03:15:21;;;;;;;1.23;0.55;;;12.20;99.90;;;;;;5076444;28;20040;-73
2022/05/27 03:18:21;;;;;;;1.17;0.90;;;12.20;99.90;;;;;;5076415;28;20482;-73
2022/05/27 03:20:52;;;;;;;1.52;1.08;;;12.30;99.90;;;;;;5076828;28;20479;-73
2022/05/27 03:23:43;;;;;;;1.63;0.93;;;12.00;99.90;;;;;;5059784;28;20097;-73
2022/05/27 03:26:52;;;;;;;2.58;0.95;;;12.10;99.90;;;;;;5059394;28;20065;-73
2022/05/27 03:29:41;;;;;;;3.70;1.23;;;12.10;99.90;;;;;;5042140;28;20048;-73
2022/05/27 03:32:17;;;;;;;4.50;1.17;;;12.30;99.90;;;;;;5076360;28;20040;-73
2022/05/27 03:34:53;;;;;;;3.35;1.42;;;12.10;99.90;;;;;;5076027;28;20036;-73
2022/05/27 03:37:35;;;;;;;7.05;1.75;;;12.00;99.90;;;;;;5075904;28;20044;-73
2022/05/27 03:40:16;;;;;;;5.10;0.88;;;12.00;99.90;;;;;;5075894;28;20080;-73
2022/05/27 03:42:43;;;;;;;2.33;1.02;;;12.10;99.90;;;;;;5059456;28;20396;-73
2022/05/27 03:45:13;;;;;;;2.53;0.82;;;12.10;99.90;;;;;;5059753;28;20530;-73
2022/05/27 03:47:41;;;;;;;4.38;1.40;;;12.60;99.90;;;;;;5075750;28;20039;-73
2022/05/27 03:50:10;;;;;;;3.45;0.90;;;12.10;99.90;;;;;;5059119;28;20044;-73
2022/05/27 03:52:39;;;;;;;1.23;0.70;;;12.10;99.90;;;;;;5076027;28;20087;-73
2022/05/27 03:55:07;;;;;;;3.65;1.23;;;12.10;99.90;;;;;;5075589;28;20055;-73
2022/05/27 03:57:33;;;;;;;4.90;1.23;;;12.10;99.90;;;;;;5075530;28;20051;-73
2022/05/27 03:59:59;;;;;;;2.58;1.00;;;12.00;99.90;;;;;;5025817;28;20036;-73
2022/05/27 04:02:25;;;;;;;1.15;0.88;;;12.50;99.90;;;;;;5058897;28;20044;-73
2022/05/27 04:04:50;;;;;;;0.98;0.70;;;12.20;99.90;;;;;;5075448;28;20445;-73
2022/05/27 04:07:16;;;;;;;2.45;0.98;;;12.10;99.90;;;;;;5058749;28;20055;-73
2022/05/27 04:09:42;;;;;;;5.15;0.95;;;12.20;99.90;;;;;;5075519;28;20483;-73
2022/05/27 04:12:08;;;;;;;1.30;0.82;;;12.20;99.90;;;;;;5058754;28;20040;-73
2022/05/27 04:14:34;;;;;;;4.50;1.27;;;12.30;99.90;;;;;;5058559;28;20144;-73
2022/05/27 04:19:45;;;;;;;1.70;0.95;;;12.30;99.90;;;;;;5046965;28;20052;-73
2022/05/27 04:22:11;;;;;;;3.05;1.00;;;12.30;99.90;;;;;;5058652;28;20044;-73
2022/05/27 04:24:38;;;;;;;2.25;1.10;;;12.30;99.90;;;;;;5075404;28;20032;-73
2022/05/27 04:27:12;;;;;;;4.35;1.23;;;12.30;99.90;;;;;;5074950;28;20052;-73
2022/05/27 04:29:40;;;;;;;2.67;0.88;;;12.40;99.90;;;;;;5075302;28;20483;-73
2022/05/27 04:32:06;;;;;;;2.13;1.45;;;12.30;99.90;;;;;;5041978;28;20562;-73
2022/05/27 04:34:31;;;;;;;3.13;0.85;;;12.40;99.90;;;;;;5058266;28;20036;-73
2022/05/27 04:36:57;;;;;;;1.88;0.98;;;12.40;99.90;;;;;;5074998;28;20127;-73
2022/05/27 04:39:23;;;;;;;4.00;1.00;;;12.60;99.90;;;;;;5075006;28;20051;-73
2022/05/27 04:41:48;;;;;;;6.03;0.95;;;12.40;99.90;;;;;;5058223;28;20040;-73
2022/05/27 04:44:14;;;;;;;2.60;0.90;;;12.40;99.90;;;;;;5074968;28;20044;-73
2022/05/27 04:46:40;;;;;;;3.58;1.10;;;12.60;99.90;;;;;;5075222;28;20032;-73
2022/05/27 04:49:05;;;;;;;4.55;0.80;;;12.50;99.90;;;;;;5041870;28;20079;-73
2022/05/27 04:51:31;;;;;;;2.67;0.98;;;12.50;99.90;;;;;;5058275;28;20086;-73
2022/05/27 04:53:57;;;;;;;1.88;0.90;;;12.70;99.90;;;;;;5074901;28;20048;-73
2022/05/27 04:56:25;;;;;;;2.83;1.10;;;12.60;99.90;;;;;;5058324;28;20487;-73
2022/05/27 04:58:51;;;;;;;3.80;0.80;;;12.90;99.90;;;;;;5074908;28;20036;-73
2022/05/27 05:01:16;;;;;;;1.58;0.77;;;12.60;99.90;;;;;;5058020;28;20127;-73
2022/05/27 05:03:42;;;;;;;2.25;1.10;;;12.50;99.90;;;;;;5074750;28;20036;-73
2022/05/27 05:06:08;;;;;;;2.58;0.60;;;12.50;99.90;;;;;;5074995;28;20051;-73
2022/05/27 05:08:36;;;;;;;8.05;1.15;;;12.80;99.90;;;;;;5074669;28;20100;-73
2022/05/27 05:11:03;;;;;;;0.68;0.55;;;12.70;99.90;;;;;;5041637;28;20040;-73
2022/05/27 05:13:30;;;;;;;3.20;0.77;;;12.50;99.90;;;;;;5058032;28;20037;-73
2022/05/27 05:15:57;;;;;;;4.88;1.25;;;12.50;99.90;;;;;;5074923;28;20035;-73
2022/05/27 05:18:23;;;;;;;1.05;0.63;;;12.50;99.90;;;;;;5058068;28;20064;-73
2022/05/27 05:20:49;;;;;;;5.05;1.33;;;12.60;99.90;;;;;;5058181;28;20047;-73
2022/05/27 05:23:15;;;;;;;2.42;0.95;;;12.90;99.90;;;;;;5074465;28;20044;-73
2022/05/27 05:25:41;;;;;;;3.47;1.13;;;12.50;99.90;;;;;;5074544;28;20032;-73
2022/05/27 05:28:06;;;;;;;5.32;0.88;;;12.60;99.90;;;;;;5074396;28;20055;-73
2022/05/27 05:30:32;;;;;;;3.50;0.95;;;12.60;99.90;;;;;;5095364;28;20511;-73
2022/05/27 05:32:58;;;;;;;1.33;0.70;;;12.50;99.90;;;;;;5078601;28;20051;-73
2022/05/27 05:35:24;;;;;;;6.32;1.30;;;12.70;99.90;;;;;;5078284;28;20055;-73
2022/05/27 05:37:50;;;;;;;2.75;0.88;;;12.80;99.90;;;;;;5078482;28;20131;-73
2022/05/27 05:40:16;;;;;;;9.73;1.15;;;12.80;99.90;;;;;;5078222;28;20562;-73
2022/05/27 05:42:43;;;;;;;4.85;0.90;;;13.10;99.90;;;;;;5061404;28;20042;-73
2022/05/27 05:45:11;;;;;;;1.50;0.85;;;12.80;99.90;;;;;;5061540;28;20040;-73
2022/05/27 05:47:37;;;;;;;5.60;1.05;;;13.00;99.90;;;;;;5061388;28;20032;-73
2022/05/27 05:50:03;;;;;;;3.65;0.98;;;13.30;99.90;;;;;;5061639;28;20063;-73
2022/05/27 05:52:29;;;;;;;2.03;0.95;;;13.00;99.90;;;;;;5078203;28;20480;-73
2022/05/27 05:54:54;;;;;;;1.77;0.77;;;13.00;99.90;;;;;;5061309;28;20040;-73
2022/05/27 05:57:21;;;;;;;1.58;0.73;;;13.00;99.90;;;;;;5061256;28;20044;-73
2022/05/27 05:59:47;;;;;;;4.68;0.88;;;13.00;99.90;;;;;;5077780;28;20170;-73
2022/05/27 06:02:13;;;;;;;1.42;0.80;;;12.90;99.90;;;;;;5061123;28;20036;-73
2022/05/27 06:04:38;;;;;;;2.05;1.08;;;13.30;99.90;;;;;;5061391;28;20043;-73
2022/05/27 06:07:05;;;;;;;7.68;1.10;;;13.10;99.90;;;;;;5077671;28;20039;-73
2022/05/27 06:09:30;;;;;;;4.65;1.30;;;13.40;99.90;;;;;;5061255;28;20395;-73
2022/05/27 06:11:59;;;;;;;5.00;0.95;;;13.30;99.90;;;;;;5077659;28;20036;-73
2022/05/27 06:14:25;;;;;;;2.42;1.05;;;13.40;99.90;;;;;;5060865;28;20085;-73
2022/05/27 06:16:51;;;;;;;6.13;0.95;;;13.50;99.90;;;;;;5077615;28;20430;-73
2022/05/27 06:19:16;;;;;;;3.75;1.02;;;13.90;99.90;;;;;;5077391;28;20518;-73
2022/05/27 06:21:43;;;;;;;5.40;1.20;;;13.50;99.90;;;;;;5060783;28;20040;-74
2022/05/27 06:24:10;;;;;;;2.83;1.05;;;13.70;99.90;;;;;;5077714;28;20066;-73
2022/05/27 06:26:38;;;;;;;2.40;0.75;;;13.70;99.90;;;;;;5060384;28;20099;-73
2022/05/27 06:34:33;;;;;;;2.20;1.00;;;14.00;99.90;;;;;;5077450;28;20044;-73
2022/05/27 06:37:08;;;;;;;2.42;0.73;;;13.90;99.90;;;;;;5060484;28;20123;-74
2022/05/27 06:39:36;;;;;;;0.77;0.70;;;14.00;99.90;;;;;;5076713;28;20083;-74
2022/05/27 06:42:04;;;;;;;3.42;0.95;;;13.90;99.90;;;;;;5076630;28;20040;-74
2022/05/27 06:44:30;;;;;;;2.38;0.70;;;14.00;99.90;;;;;;5060406;28;20036;-73
2022/05/27 06:46:56;;;;;;;5.43;0.73;;;13.90;99.90;;;;;;5060277;28;20115;-73
2022/05/27 06:49:22;;;;;;;6.68;0.77;;;14.10;99.90;;;;;;5027391;28;20096;-73
2022/05/27 06:51:48;;;;;;;3.60;1.00;;;14.50;99.90;;;;;;5043828;28;20047;-73
2022/05/27 06:54:15;;;;;;;2.13;0.88;;;14.00;99.90;;;;;;5060410;28;20044;-73
2022/05/27 06:56:44;;;;;;;3.63;1.10;;;14.10;99.90;;;;;;5076939;28;20048;-74
2022/05/27 06:59:11;;;;;;;3.33;1.00;;;14.40;99.90;;;;;;5076641;28;20131;-79
2022/05/27 07:01:37;;;;;;;1.38;0.60;;;14.10;99.90;;;;;;5043833;28;20399;-71
2022/05/27 07:04:04;;;;;;;3.30;1.23;;;14.10;99.90;;;;;;5060219;28;20510;-71
2022/05/27 07:06:35;;;;;;;3.03;1.00;;;14.30;99.90;;;;;;5076614;28;20040;-71
2022/05/27 07:09:03;;;;;;;2.33;0.95;;;14.20;99.90;;;;;;5076847;28;20127;-71
2022/05/27 07:11:29;;;;;;;3.38;0.98;;;14.40;99.90;;;;;;5076976;28;20092;-71
2022/05/27 07:13:55;;;;;;;7.70;1.50;;;14.20;99.90;;;;;;5076498;28;20128;-71
2022/05/27 07:16:20;;;;;;;3.38;1.30;;;14.40;99.90;;;;;;5076431;28;20075;-71
2022/05/27 07:18:46;;;;;;;2.70;1.35;;;14.40;99.90;;;;;;5059705;28;20040;-71
2022/05/27 07:21:13;;;;;;;3.20;0.82;;;14.30;99.90;;;;;;5059982;28;20479;-71
2022/05/27 07:23:39;;;;;;;5.30;1.23;;;14.10;99.90;;;;;;5059569;28;20097;-71
2022/05/27 07:26:05;;;;;;;2.15;0.80;;;14.00;99.90;;;;;;5059443;28;20527;-72
2022/05/27 07:28:30;;;;;;;1.40;0.47;;;14.00;99.90;;;;;;5076111;28;20039;-72
2022/05/27 07:31:01;;;;;;;2.92;0.82;;;14.30;99.90;;;;;;5076094;28;20042;-70
2022/05/27 07:33:27;;;;;;;2.70;0.77;;;14.60;99.90;;;;;;5028002;28;20081;-70
2022/05/27 07:35:53;;;;;;;8.52;1.42;;;14.70;99.90;;;;;;5076028;28;20067;-70
2022/05/27 07:38:19;;;;;;;5.28;1.38;;;14.70;99.90;;;;;;5075846;28;20113;-70
2022/05/27 07:40:45;;;;;;;5.82;1.10;;;14.70;99.90;;;;;;5075810;28;20048;-71
2022/05/27 07:43:11;;;;;;;5.70;1.30;;;14.80;99.90;;;;;;5042519;28;20073;-71
2022/05/27 07:45:39;;;;;;;1.83;0.95;;;15.00;99.90;;;;;;5042571;28;20036;-72
2022/05/27 07:48:06;;;;;;;5.28;1.17;;;14.80;99.90;;;;;;5075722;28;20043;-71
2022/05/27 07:50:31;;;;;;;4.05;1.00;;;14.60;99.90;;;;;;5075617;28;20040;-71
2022/05/27 07:52:57;;;;;;;2.42;0.73;;;14.60;99.90;;;;;;5059031;28;20514;-72
2022/05/27 07:55:23;;;;;;;5.75;0.85;;;15.10;99.90;;;;;;5059319;28;20044;-72
2022/05/27 07:57:49;;;;;;;1.35;1.00;;;14.80;99.90;;;;;;5075543;28;20125;-73
2022/05/27 08:00:25;;;;;;;2.97;1.17;;;14.80;99.90;;;;;;5042256;28;20048;-72
2022/05/27 08:02:53;;;;;;;1.65;0.88;;;14.90;99.90;;;;;;5058993;28;20538;-73
2022/05/27 08:05:32;;;;;;;2.00;0.70;;;15.00;99.90;;;;;;5058713;28;20047;-73
2022/05/27 08:08:00;;;;;;;1.10;0.63;;;15.00;99.90;;;;;;5058686;28;20039;-72
2022/05/27 08:10:34;;;;;;;3.80;1.08;;;15.00;99.90;;;;;;5075380;28;20052;-73
2022/05/27 08:13:00;;;;;;;1.85;0.63;;;15.30;99.90;;;;;;5058670;28;20113;-72
2022/05/27 08:15:27;;;;;;;1.50;0.80;;;15.30;99.90;;;;;;5059158;28;20039;-72
2022/05/27 08:17:53;;;;;;;1.90;0.98;;;15.40;99.90;;;;;;5075208;28;20093;-73
2022/05/27 08:20:22;;;;;;;3.00;0.93;;;15.60;99.90;;;;;;5058407;28;20048;-72
2022/05/27 08:22:50;;;;;;;2.90;0.90;;;15.60;99.90;;;;;;5075459;28;20436;-73
2022/05/27 08:25:17;;;;;;;1.98;0.90;;;15.50;99.90;;;;;;5075220;28;20089;-82
2022/05/27 08:27:43;;;;;;;4.97;1.17;;;15.40;99.90;;;;;;5042059;28;20546;-71
2022/05/27 08:30:12;;;;;;;6.30;0.95;;;15.50;99.90;;;;;;5058434;28;20101;-72
2022/05/27 08:32:38;;;;;;;2.65;1.05;;;15.60;99.90;;;;;;5058729;28;20051;-71
2022/05/27 08:38:01;;;;;;;3.58;0.68;;;15.80;99.90;;;;;;5061013;28;20487;-72
2022/05/27 08:40:45;;;;;;;2.70;1.00;;;15.80;99.90;;;;;;5074894;28;20040;-72
2022/05/27 08:43:10;;;;;;;2.42;0.65;;;15.80;99.90;;;;;;5058553;28;20036;-72
2022/05/27 08:45:57;;;;;;;5.40;1.65;;;15.90;99.90;;;;;;5074955;28;20039;-78
2022/05/27 08:48:25;;;;;;;2.80;0.70;;;;;;;;;;5058173;28;20048;-79
2022/05/27 08:51:04;;;;;;;2.10;0.68;;;15.80;99.90;;;;;;5058599;28;20098;-81
2022/05/27 08:53:51;;;;;;;2.75;0.60;;;15.70;99.90;;;;;;5058110;28;20127;-80
2022/05/27 08:59:32;;;;;;;1.80;1.10;;;15.50;99.90;;;;;;5074848;28;20128;-72
2022/05/27 09:02:23;;;;;;;3.40;1.00;;;15.50;99.90;;;;;;5074710;28;20043;-72
2022/05/27 09:05:07;;;;;;;;;;;15.50;99.90;;;;;;5060686;28;20054;-73
2022/05/27 09:07:51;;;;;;;4.93;1.17;;;15.70;99.90;;;;;;5079080;28;20341;-72
2022/05/27 09:10:21;;;;;;;2.70;0.88;;;15.80;99.90;;;;;;5061910;28;20051;-72
2022/05/27 09:12:50;;;;;;;2.53;0.70;;;15.80;99.90;;;;;;5062024;28;20039;-73
2022/05/27 09:15:32;;;;;;;1.60;0.90;;;15.80;99.90;;;;;;5062094;28;20131;-72
2022/05/27 09:18:13;;;;;;;2.08;0.85;;;15.80;99.90;;;;;;5078625;28;20040;-72
2022/05/27 09:20:50;;;;;;;2.05;0.93;;;15.60;99.90;;;;;;5078693;28;20040;-72
2022/05/27 09:23:40;;;;;;;2.42;1.00;;;15.50;99.90;;;;;;5078505;28;20032;-72
2022/05/27 09:26:13;;;;;;;2.38;0.98;;;15.40;99.90;;;;;;5061919;28;20403;-71
2022/05/27 09:28:45;;;;;;;4.15;1.05;;;15.10;99.90;;;;;;5078417;28;20044;-72
2022/05/27 09:31:13;;;;;;;3.20;0.52;;;;;;;;;;5078458;28;20055;-72
2022/05/27 09:33:39;;;;;;;2.20;1.10;;;;;;;;;;5061905;28;20040;-80
2022/05/27 09:36:09;;;;;;;2.15;0.60;;;;;;;;;;5045373;28;20519;-70
2022/05/27 09:38:38;;;;;;;1.25;0.60;;;;;;;;;;5078430;28;20054;-72
2022/05/27 09:41:26;;;;;;;1.08;0.55;;;;;;;;;;5078298;28;20075;-71
2022/05/27 09:44:14;;;;;;;4.68;0.60;;;;;;;;;;5061458;28;20123;-71
2022/05/27 09:46:40;;;;;;;2.17;0.50;;;;;;;;;;5061691;28;20509;-72
2022/05/27 09:49:07;;;;;;;1.83;0.85;;;;;;;;;;5061492;28;20078;-73
2022/05/27 09:51:33;;;;;;;1.83;0.77;;;;;;;;;;5061907;28;20475;-72
2022/05/27 09:54:18;;;;;;;5.47;0.60;;;;;;;;;;5061271;28;20040;-72
2022/05/27 09:56:55;;;;;;;1.27;0.80;;;;;;;;;;5061529;28;20617;-73
2022/05/27 09:59:25;;;;;;;2.03;0.88;;;;;;;;;;5061463;28;20131;-73
2022/05/27 10:01:52;;;;;;;3.10;1.00;;;;;;;;;;5077911;28;20036;-73
2022/05/27 10:04:20;;;;;;;2.90;0.93;;;;;;;;;;5077989;28;20051;-75
2022/05/27 10:06:51;;;;;;;3.30;0.47;;;;;;;;;;5061402;28;20142;-73
2022/05/27 10:09:28;;;;;;;0.82;0.50;;;;;;;;;;5061015;28;20048;-73
2022/05/27 10:11:55;;;;;;;4.53;0.75;;;;;;;;;;5077937;28;20487;-73
2022/05/27 10:14:23;;;;;;;1.45;0.95;;;;;;;;;;5077345;28;20044;-72
2022/05/27 10:17:10;;;;;;;2.60;0.70;;;;;;;;;;5078020;28;20036;-81
2022/05/27 10:19:37;;;;;;;4.38;0.60;;;;;;;;;;5060980;28;20036;-81
2022/05/27 10:22:03;;;;;;;1.98;0.70;;;;;;;;;;5061357;28;20570;-82
2022/05/27 10:24:29;;;;;;;0.95;0.70;;;;;;;;;;5061350;28;20480;-85
2022/05/27 10:27:10;;;;;;;4.47;0.80;;;;;;;;;;5051432;28;20523;-72
2022/05/27 10:29:48;;;;;;;4.25;0.77;;;;;;;;;;5053827;28;20128;-72
2022/05/27 10:32:25;;;;;;;1.42;0.60;;;;;;;;;;5037260;28;20047;-72
2022/05/27 10:34:52;;;;;;;2.08;0.70;;;;;;;;;;5037173;28;20107;-72
2022/05/27 10:37:47;;;;;;;1.25;0.70;;;;;;;;;;5053622;28;20095;-72
2022/05/27 10:40:15;;;;;;;1.35;0.55;;;;;;;;;;5040843;28;20049;-72
2022/05/27 10:42:44;;;;;;;0.55;0.40;;;;;;;;;;5054060;28;20048;-73
2022/05/27 10:45:13;;;;;;;5.30;0.85;;;;;;;;;;5037022;28;20043;-72
2022/05/27 10:47:54;;;;;;;7.10;0.90;;;;;;;;;;5053868;28;20040;-78
2022/05/27 10:50:30;;;;;;;1.00;0.63;;;;;;;;;;5038296;28;20424;-73
2022/05/27 10:52:59;;;;;;;2.58;1.00;;;;;;;;;;5037288;28;20514;-78
2022/05/27 10:55:56;;;;;;;5.65;1.08;;;15.30;99.90;;;;;;5054109;28;20480;-75
2022/05/27 11:02:17;;;;;;;1.20;0.65;;;15.70;99.90;;;;;;5053361;28;20072;-71
2022/05/27 11:05:01;;;;;;;0.82;0.68;;;15.80;99.90;;;;;;5010199;28;20080;-72
2022/05/27 11:07:27;;;;;;;0.77;0.50;;;15.80;99.90;;;;;;5053237;28;20043;-71
2022/05/27 11:10:01;;;;;;;5.03;0.70;;;15.80;99.90;;;;;;5053178;28;20037;-72
2022/05/27 11:15:59;;;;;;;1.83;0.93;;;15.90;99.90;;;;;;5053067;28;20052;-71
2022/05/27 11:18:53;;;;;;;0.95;0.50;;;15.70;99.90;;;;;;5036421;28;20044;-73
2022/05/27 11:21:46;;;;;;;2.53;0.98;;;15.80;99.90;;;;;;5053159;28;20045;-72
2022/05/27 11:24:24;;;;;;;1.70;0.80;;;15.80;99.90;;;;;;5053242;28;20397;-85
2022/05/27 11:27:38;;;;;;;1.58;0.82;;;15.70;99.90;;;;;;5052162;28;20087;-87
2022/05/27 11:30:06;;;;;;;3.55;1.05;;;15.60;99.90;;;;;;5020100;28;20057;-73
2022/05/27 11:33:17;;;;;;;2.17;1.08;;;15.50;99.90;;;;;;5036243;28;20044;-84
2022/05/27 11:36:09;;;;;;;1.60;0.80;;;15.40;99.90;;;;;;5021097;28;20049;-83
2022/05/27 11:38:58;;;;;;;2.10;0.70;;;15.30;99.90;;;;;;5053007;28;20099;-83
2022/05/27 11:41:30;;;;;;;3.53;0.88;;;15.00;99.90;;;;;;5052761;28;20041;-72
2022/05/27 11:44:06;;;;;;;1.00;0.60;;;14.90;99.90;;;;;;5036326;28;20051;-73
2022/05/27 11:47:13;;;;;;;1.33;0.77;;;14.80;99.90;;;;;;5035913;28;20127;-73
2022/05/27 11:50:04;;;;;;;5.63;1.10;;;14.80;99.90;;;;;;5035833;28;20041;-73
2022/05/27 11:52:51;;;;;;;1.70;0.60;;;15.10;99.90;;;;;;5036113;28;20040;-73
2022/05/27 11:55:32;;;;;;;1.48;0.68;;;15.60;99.90;;;;;;5036066;28;20445;-73
2022/05/27 11:58:18;;;;;;;1.63;0.80;;;15.90;99.90;;;;;;5052608;28;20488;-74
2022/05/27 12:01:10;;;;;;;0.93;0.55;;;16.20;99.90;;;;;;5052287;28;20041;-73
2022/05/27 12:04:05;;;;;;;2.78;0.88;;;16.00;99.90;;;;;;5027139;28;20052;-73
2022/05/27 12:06:53;;;;;;;6.03;0.68;;;15.80;99.90;;;;;;5052367;28;20444;-73
2022/05/27 12:09:52;;;;;;;2.53;0.80;;;15.60;99.90;;;;;;5016071;28;20403;-79
2022/05/27 12:13:09;;;;;;;1.60;0.55;;;15.30;99.90;;;;;;5038601;28;20100;-73
2022/05/27 12:15:37;;;;;;;4.43;0.65;;;15.10;99.90;;;;;;5002593;28;20053;-73
2022/05/27 12:18:10;;;;;;;1.38;0.95;;;15.20;99.90;;;;;;5052255;28;20053;-84
2022/05/27 12:20:37;;;;;;;2.45;1.10;;;15.40;99.90;;;;;;5019051;28;20484;-73
2022/05/27 12:23:09;;;;;;;2.88;1.00;;;15.40;99.90;;;;;;5035582;28;20056;-73
2022/05/27 12:25:45;;;;;;;1.58;0.68;;;15.30;99.90;;;;;;5051810;28;20045;-74
2022/05/27 12:28:15;;;;;;;3.65;0.80;;;15.10;99.90;;;;;;5035178;28;20400;-74
2022/05/27 12:30:43;;;;;;;1.38;0.80;;;15.10;99.90;;;;;;5035146;28;20052;-73
2022/05/27 12:33:17;;;;;;;2.53;1.23;;;15.00;99.90;;;;;;5051595;28;20052;-73
2022/05/27 12:36:00;;;;;;;6.30;0.98;;;15.00;99.90;;;;;;5035181;28;20049;-73
2022/05/27 12:38:29;;;;;;;3.63;1.02;;;15.20;99.90;;;;;;5034147;28;20040;-74
2022/05/27 12:41:06;;;;;;;2.08;1.00;;;15.20;99.90;;;;;;5035233;28;20109;-81
2022/05/27 12:43:53;;;;;;;4.03;0.80;;;15.20;99.90;;;;;;5035293;28;20044;-73
2022/05/27 12:46:41;;;;;;;2.28;0.93;;;15.10;99.90;;;;;;5051769;28;20435;-73
2022/05/27 12:49:25;;;;;;;5.43;0.73;;;15.00;99.90;;;;;;5034972;28;20040;-73
2022/05/27 12:51:52;;;;;;;1.55;0.93;;;15.10;99.90;;;;;;5051501;28;20041;-74
2022/05/27 12:54:42;;;;;;;4.07;1.13;;;15.30;99.90;;;;;;5018622;28;20047;-74
2022/05/27 13:03:33;;;;;;;3.50;1.25;;;15.80;99.90;;;;;;5051402;28;20250;-75
2022/05/27 13:06:11;;;;;;;3.60;1.20;;;16.00;99.90;;;;;;5034844;28;20079;-73
2022/05/27 13:08:52;;;;;;;2.30;0.65;;;15.80;99.90;;;;;;5034748;28;20040;-73
2022/05/27 13:11:25;;;;;;;2.88;1.00;;;15.50;99.90;;;;;;5051558;28;20128;-73
2022/05/27 13:14:03;;;;;;;4.18;0.80;;;15.40;99.90;;;;;;5051279;28;20045;-73
2022/05/27 13:16:41;;;;;;;3.17;1.13;;;15.30;99.90;;;;;;5051623;28;20052;-73
2022/05/27 13:19:19;;;;;;;7.15;1.17;;;15.20;99.90;;;;;;5034601;28;20052;-73
2022/05/27 13:22:00;;;;;;;2.85;0.70;;;15.20;99.90;;;;;;5051330;28;20052;-73
2022/05/27 13:24:38;;;;;;;4.38;0.90;;;15.20;99.90;;;;;;5034815;28;20511;-73
2022/05/27 13:27:24;;;;;;;2.83;0.95;;;15.10;99.90;;;;;;5051047;28;20056;-73
2022/05/27 13:30:10;;;;;;;2.13;0.70;;;15.20;99.90;;;;;;5051458;28;20496;-73
2022/05/27 13:33:04;;;;;;;2.13;0.50;;;15.10;99.90;;;;;;5051011;28;20055;-73
2022/05/27 13:35:44;;;;;;;4.40;1.15;;;15.00;99.90;;;;;;5051148;28;20071;-73
2022/05/27 13:38:13;;;;;;;2.67;0.93;;;14.90;99.90;;;;;;5034547;28;20125;-73
2022/05/27 13:40:40;;;;;;;5.88;1.35;;;14.80;99.90;;;;;;5050918;28;20052;-73
2022/05/27 13:43:19;;;;;;;1.17;0.63;;;14.70;99.90;;;;;;5051367;28;20087;-73
2022/05/27 13:45:56;;;;;;;3.95;0.93;;;14.70;99.90;;;;;;5051233;28;20398;-73
2022/05/27 13:49:01;;;;;;;1.33;0.93;;;14.80;99.90;;;;;;5050984;28;20041;-73
2022/05/27 13:51:28;;;;;;;5.45;0.98;;;14.80;99.90;;;;;;5037791;28;20131;-73
2022/05/27 13:53:54;;;;;;;10.52;1.20;;;14.80;99.90;;;;;;5021690;28;20088;-73
2022/05/27 13:56:37;;;;;;;3.85;0.75;;;14.90;99.90;;;;;;5054568;28;20115;-72
2022/05/27 13:59:28;;;;;;;4.95;0.90;;;15.00;99.90;;;;;;5038149;28;20049;-73
2022/05/27 14:01:59;;;;;;;1.17;0.57;;;14.90;99.90;;;;;;5037992;28;20048;-73
2022/05/27 14:04:28;;;;;;;2.63;0.63;;;14.90;99.90;;;;;;5054561;28;20068;-73